Time;durP1;ratioP1;P1;durP2;ratioP2;P2;SDS_P1;SDS_P2;PMS_P1;PMS_P2;Temp;Humidity;BMP_temperature;BMP_pressure;BME280_temperature;BME280_humidity;BME280_pressure;Samples;Min_cycle;Max_cycle;Signal;HPM_P1;HPM_P2
2022/12/25 00:00:55;;;;;;;55.10;36.28;;;;;;;2.71;100.00;93480.91;5068653;28;20056;-71
2022/12/25 00:03:22;;;;;;;52.75;32.20;;;;;;;2.79;100.00;93475.84;5068690;28;20053;-70
2022/12/25 00:05:49;;;;;;;63.15;39.30;;;;;;;2.84;100.00;93477.91;5069266;28;20090;-71
2022/12/25 00:08:16;;;;;;;76.85;44.90;;;;;;;2.89;100.00;93476.53;5066154;28;20045;-71
2022/12/25 00:10:43;;;;;;;66.28;41.72;;;;;;;2.88;100.00;93477.44;5058428;28;20044;-71
2022/12/25 00:13:09;;;;;;;52.38;34.10;;;;;;;2.86;100.00;93484.44;5068548;28;20049;-71
2022/12/25 00:15:39;;;;;;;46.17;29.30;;;;;;;2.79;100.00;93491.09;5068894;28;20048;-70
2022/12/25 00:18:07;;;;;;;36.67;23.85;;;;;;;2.74;100.00;93495.81;5068710;28;20078;-70
2022/12/25 00:20:34;;;;;;;38.17;25.67;;;;;;;2.74;100.00;93503.44;5068589;28;20049;-70
2022/12/25 00:23:01;;;;;;;40.67;27.73;;;;;;;2.74;100.00;93505.97;5068839;28;20454;-70
2022/12/25 00:25:27;;;;;;;49.05;33.28;;;;;;;2.74;100.00;93508.50;5068627;28;20090;-71
2022/12/25 00:27:54;;;;;;;47.67;33.15;;;;;;;2.73;100.00;93509.47;5068164;28;20500;-71
2022/12/25 00:30:21;;;;;;;45.05;30.98;;;;;;;2.77;100.00;93500.56;5068615;28;20041;-71
2022/12/25 00:32:48;;;;;;;42.55;29.85;;;;;;;2.54;100.00;93470.69;5068456;28;20051;-71
2022/12/25 00:35:16;;;;;;;37.72;27.48;;;;;;;2.77;100.00;93500.56;5068627;28;20500;-70
2022/12/25 00:37:42;;;;;;;56.40;36.83;;;;;;;2.48;100.00;93499.22;5068033;28;20045;-70
2022/12/25 00:40:10;;;;;;;71.35;46.13;;;;;;;2.56;100.00;93500.97;5068504;28;20052;-70
2022/12/25 00:42:37;;;;;;;55.40;37.17;;;;;;;2.39;100.00;93461.16;5068682;28;20103;-70
2022/12/25 00:45:04;;;;;;;49.15;32.70;;;;;;;2.63;100.00;93494.34;5068888;28;20447;-71
2022/12/25 00:47:31;;;;;;;63.78;41.83;;;;;;;2.44;100.00;93501.25;5063430;28;20132;-70
2022/12/25 00:49:58;;;;;;;54.35;36.00;;;;;;;2.45;100.00;93490.16;5048685;28;20443;-70
2022/12/25 00:52:26;;;;;;;63.25;40.78;;;;;;;2.46;100.00;93489.22;5066745;28;20094;-71
2022/12/25 00:54:53;;;;;;;51.20;33.95;;;;;;;2.45;100.00;93489.38;5068447;28;20504;-71
2022/12/25 00:57:19;;;;;;;52.05;34.47;;;;;;;2.22;100.00;93503.38;5068598;28;20098;-70
2022/12/25 00:59:46;;;;;;;50.97;33.97;;;;;;;2.13;100.00;93486.56;5067984;28;20045;-70
2022/12/25 01:02:24;;;;;;;47.25;30.73;;;;;;;2.19;100.00;93490.22;5068461;28;20102;-70
2022/12/25 01:04:53;;;;;;;53.60;36.10;;;;;;;2.11;100.00;93498.56;5064672;28;20049;-71
2022/12/25 01:07:20;;;;;;;46.63;31.17;;;;;;;1.87;100.00;93462.81;5068336;28;20044;-70
2022/12/25 01:12:36;;;;;;;59.03;38.17;;;;;;;2.02;100.00;93502.00;5072048;28;20059;-70
2022/12/25 01:15:05;;;;;;;51.10;34.92;;;;;;;1.61;100.00;93508.38;5072162;28;20443;-70
2022/12/25 01:17:31;;;;;;;73.55;49.03;;;;;;;1.66;100.00;93513.81;5072292;28;20455;-70
2022/12/25 01:19:58;;;;;;;58.50;39.95;;;;;;;1.73;100.00;93498.81;5071753;28;20098;-71
2022/12/25 01:22:25;;;;;;;65.75;43.45;;;;;;;1.83;100.00;93506.31;5072050;28;20443;-71
2022/12/25 01:24:53;;;;;;;70.78;46.38;;;;;;;1.92;100.00;93509.69;5071650;28;20562;-71
2022/12/25 01:27:20;;;;;;;63.78;40.40;;;;;;;1.95;100.00;93505.13;5072240;28;20534;-71
2022/12/25 01:29:46;;;;;;;55.10;38.88;;;;;;;2.04;100.00;93508.50;5071324;28;20048;-71
2022/12/25 01:32:13;;;;;;;64.68;42.05;;;;;;;2.03;100.00;93501.06;5071889;28;20048;-71
2022/12/25 01:34:40;;;;;;;62.35;41.25;;;;;;;2.12;100.00;93513.63;5071403;28;20049;-71
2022/12/25 01:37:07;;;;;;;58.30;38.97;;;;;;;1.78;100.00;93511.84;5058741;28;20130;-70
2022/12/25 01:39:33;;;;;;;46.20;30.75;;;;;;;1.96;100.00;93500.88;5045319;28;20210;-71
2022/12/25 01:42:02;;;;;;;54.97;36.78;;;;;;;2.07;100.00;93505.69;5071382;28;20060;-70
2022/12/25 01:45:04;;;;;;;56.17;39.22;;;;;;;2.14;100.00;93505.88;5072084;28;20443;-70
2022/12/25 01:47:31;;;;;;;59.42;40.20;;;;;;;2.03;100.00;93484.13;5068702;28;20048;-70
2022/12/25 01:49:58;;;;;;;56.47;38.28;;;;;;;2.20;100.00;93502.75;5071316;28;20575;-70
2022/12/25 01:52:25;;;;;;;93.28;54.88;;;;;;;2.25;100.00;93504.81;5071134;28;20061;-71
2022/12/25 01:54:55;;;;;;;57.50;37.22;;;;;;;2.34;100.00;93496.31;5071642;28;20098;-71
2022/12/25 01:57:27;;;;;;;50.55;34.50;;;;;;;2.39;100.00;93496.66;5070917;28;20041;-70
2022/12/25 01:59:55;;;;;;;67.20;41.38;;;;;;;2.38;100.00;93501.88;5071220;28;20052;-70
2022/12/25 02:02:22;;;;;;;57.58;39.38;;;;;;;2.18;100.00;93509.69;5071536;28;20041;-71
2022/12/25 02:04:54;;;;;;;57.92;38.67;;;;;;;2.28;100.00;93499.47;5070019;28;20048;-70
2022/12/25 02:07:23;;;;;;;60.45;39.90;;;;;;;2.36;100.00;93504.56;5059930;28;20492;-70
2022/12/25 02:09:50;;;;;;;57.67;37.00;;;;;;;2.42;100.00;93502.34;5071101;28;20105;-71
2022/12/25 02:12:20;;;;;;;49.45;33.05;;;;;;;2.50;100.00;93502.41;5071346;28;20062;-71
2022/12/25 02:14:50;;;;;;;83.32;42.08;;;;;;;2.50;100.00;93513.31;5070414;28;20052;-70
2022/12/25 02:17:27;;;;;;;58.88;34.78;;;;;;;2.51;100.00;93519.19;5071329;28;20049;-70
2022/12/25 02:20:14;;;;;;;45.50;28.65;;;;;;;2.24;100.00;93486.28;5070586;28;20041;-70
2022/12/25 02:22:56;;;;;;;46.13;27.65;;;;;;;2.42;100.00;93513.31;5070461;28;20470;-70
2022/12/25 02:25:39;;;;;;;48.55;30.25;;;;;;;2.44;100.00;93516.47;5070717;28;20048;-71
2022/12/25 02:28:13;;;;;;;44.35;28.55;;;;;;;2.47;100.00;93515.38;5070562;28;20462;-71
2022/12/25 02:30:45;;;;;;;46.75;29.52;;;;;;;2.46;100.00;93519.63;5070913;28;20049;-71
2022/12/25 02:36:05;;;;;;;56.45;33.42;;;;;;;2.40;100.00;93518.53;5070538;28;20174;-71
2022/12/25 02:38:37;;;;;;;46.70;32.60;;;;;;;2.18;100.00;93497.00;5070856;28;20048;-71
2022/12/25 02:41:10;;;;;;;45.92;32.25;;;;;;;2.29;100.00;93525.59;5070308;28;20119;-71
2022/12/25 03:08:52;;;;;;;28.63;21.45;;;;;;;1.89;100.00;93537.88;5069778;28;20055;-70
2022/12/25 03:11:30;;;;;;;35.08;23.35;;;;;;;1.81;100.00;93539.38;5070146;28;20040;-70
2022/12/25 03:16:49;;;;;;;30.63;21.40;;;;;;;1.80;100.00;93542.88;5069794;28;20052;-71
2022/12/25 03:16:49;;;;;;;34.65;21.30;;;;;;;1.82;100.00;93547.78;5069523;28;20041;-71
2022/12/25 03:27:28;;;;;;;24.65;17.23;;;;;;;1.68;100.00;93561.78;5069462;28;20055;-70
2022/12/25 03:32:57;;;;;;;28.10;18.77;;;;;;;1.67;100.00;93560.97;5068760;28;20054;-70
2022/12/25 03:35:31;;;;;;;32.72;21.50;;;;;;;1.65;100.00;93562.06;5069388;28;20167;-70
2022/12/25 04:36:38;;;;;;;47.55;29.67;;;;;;;1.32;100.00;93603.06;5068355;28;20075;-71
2022/12/25 04:39:06;;;;;;;52.70;31.08;;;;;;;1.34;100.00;93611.31;5068342;28;20094;-71
2022/12/25 04:41:33;;;;;;;46.80;29.17;;;;;;;0.93;100.00;93612.47;5053662;28;20071;-71
2022/12/25 04:43:59;;;;;;;50.03;29.63;;;;;;;1.04;100.00;93616.56;5054727;28;20087;-71
2022/12/25 04:46:26;;;;;;;46.00;30.25;;;;;;;1.07;100.00;93610.41;5057178;28;20041;-70
2022/12/25 04:48:53;;;;;;;45.47;30.83;;;;;;;1.07;100.00;93628.13;5056526;28;20479;-70
2022/12/25 04:51:21;;;;;;;43.65;29.02;;;;;;;1.04;100.00;93626.69;5058552;28;20044;-70
2022/12/25 04:53:49;;;;;;;41.38;28.65;;;;;;;1.06;100.00;93629.03;5056003;28;20044;-71
2022/12/25 04:56:17;;;;;;;43.53;29.38;;;;;;;1.08;100.00;93629.72;5057921;28;20044;-71
2022/12/25 04:58:45;;;;;;;44.30;28.15;;;;;;;1.06;100.00;93626.50;5058702;28;20061;-71
2022/12/25 05:01:12;;;;;;;43.38;29.67;;;;;;;1.01;100.00;93639.59;5056009;28;20055;-71
2022/12/25 05:03:40;;;;;;;41.92;29.98;;;;;;;0.97;100.00;93635.75;5058211;28;20098;-71
2022/12/25 05:06:07;;;;;;;53.70;34.22;;;;;;;0.96;100.00;93644.28;5055869;28;20052;-71
2022/12/25 05:08:35;;;;;;;43.25;29.33;;;;;;;0.96;100.00;93640.97;5058147;28;20060;-71
2022/12/25 05:11:05;;;;;;;43.80;29.00;;;;;;;0.96;100.00;93646.81;5054234;28;20048;-71
2022/12/25 05:13:33;;;;;;;54.08;39.33;;;;;;;0.68;100.00;93605.53;5057297;28;20485;-71
2022/12/25 05:16:00;;;;;;;36.22;23.50;;;;;;;0.97;100.00;93648.38;5056083;28;20053;-71
2022/12/25 05:18:27;;;;;;;36.17;25.23;;;;;;;0.97;100.00;93650.91;5058112;28;20052;-71
2022/12/25 05:20:55;;;;;;;32.70;22.80;;;;;;;0.94;100.00;93648.69;5053396;28;20040;-71
2022/12/25 05:23:22;;;;;;;26.13;18.80;;;;;;;0.96;100.00;93656.16;5057202;28;20049;-70
2022/12/25 05:25:49;;;;;;;26.63;18.70;;;;;;;0.95;100.00;93657.88;5055173;28;20456;-70
2022/12/25 05:28:16;;;;;;;25.80;18.42;;;;;;;0.97;100.00;93660.25;5056491;28;20037;-70
2022/12/25 05:30:44;;;;;;;30.92;22.23;;;;;;;0.92;100.00;93655.59;5058055;28;20053;-70
2022/12/25 05:33:11;;;;;;;26.00;18.58;;;;;;;0.94;100.00;93651.22;5056568;28;20097;-71
2022/12/25 05:35:38;;;;;;;25.58;18.60;;;;;;;0.91;100.00;93652.28;5058161;28;20090;-71
2022/12/25 05:38:05;;;;;;;26.30;18.60;;;;;;;0.83;100.00;93644.59;5055911;28;20049;-71
2022/12/25 05:40:32;;;;;;;29.10;20.23;;;;;;;0.80;100.00;93639.81;5057968;28;20048;-71
2022/12/25 05:42:59;;;;;;;31.90;24.08;;;;;;;0.85;100.00;93660.44;5059276;28;20114;-70
2022/12/25 05:45:26;;;;;;;37.38;24.90;;;;;;;0.89;100.00;93660.94;5065616;28;20557;-71
2022/12/25 05:47:54;;;;;;;31.15;22.38;;;;;;;0.85;100.00;93662.16;5069373;28;20041;-71
2022/12/25 05:50:20;;;;;;;35.28;24.65;;;;;;;0.80;100.00;93660.06;5071476;28;20048;-71
2022/12/25 05:52:47;;;;;;;33.65;21.65;;;;;;;0.88;100.00;93674.53;5071463;28;20110;-71
2022/12/25 05:55:14;;;;;;;38.45;28.08;;;;;;;0.86;100.00;93676.38;5056730;28;20512;-71
2022/12/25 05:57:41;;;;;;;35.95;23.27;;;;;;;0.86;100.00;93671.34;5059756;28;20063;-71
2022/12/25 06:00:09;;;;;;;22.38;16.27;;;;;;;0.82;100.00;93680.94;5071123;28;20447;-71
2022/12/25 06:02:36;;;;;;;23.10;15.98;;;;;;;0.82;100.00;93683.47;5071242;28;20052;-71
2022/12/25 06:05:04;;;;;;;25.02;16.65;;;;;;;0.77;100.00;93673.78;5070978;28;20052;-71
2022/12/25 06:07:31;;;;;;;20.65;15.00;;;;;;;0.83;100.00;93682.53;5071454;28;20258;-71
2022/12/25 06:09:58;;;;;;;31.35;22.70;;;;;;;0.83;100.00;93680.00;5052837;28;20041;-70
2022/12/25 06:12:24;;;;;;;33.58;23.45;;;;;;;0.87;100.00;93686.38;5062646;28;20102;-71
2022/12/25 06:14:51;;;;;;;45.95;31.90;;;;;;;0.90;100.00;93691.16;5070781;28;20044;-71
2022/12/25 06:17:18;;;;;;;49.28;30.58;;;;;;;0.90;100.00;93692.88;5071130;28;20044;-71
2022/12/25 06:19:44;;;;;;;46.00;31.02;;;;;;;0.86;100.00;93696.63;5070481;28;20053;-71
2022/12/25 06:22:13;;;;;;;53.85;36.92;;;;;;;0.86;100.00;93696.63;5070864;28;20554;-71
2022/12/25 06:24:39;;;;;;;59.78;40.25;;;;;;;0.88;100.00;93703.13;5070640;28;20045;-71
2022/12/25 06:27:06;;;;;;;67.07;44.47;;;;;;;0.92;100.00;93701.13;5070502;28;20139;-71
2022/12/25 06:29:33;;;;;;;61.42;39.80;;;;;;;0.95;100.00;93713.50;5060929;28;20082;-71
2022/12/25 06:31:59;;;;;;;69.25;43.35;;;;;;;1.00;100.00;93715.63;5071096;28;20125;-71
2022/12/25 06:34:26;;;;;;;66.82;42.88;;;;;;;0.94;100.00;93711.94;5070588;28;20036;-71
2022/12/25 06:36:53;;;;;;;68.47;41.25;;;;;;;0.99;100.00;93714.03;5070660;28;20496;-71
2022/12/25 06:39:21;;;;;;;51.78;35.00;;;;;;;1.03;100.00;93720.41;5070970;28;20045;-70
2022/12/25 06:41:48;;;;;;;45.90;31.05;;;;;;;1.04;100.00;93717.75;5069969;28;20549;-70
2022/12/25 06:44:15;;;;;;;47.20;30.75;;;;;;;1.02;100.00;93723.88;5070778;28;20105;-71
2022/12/25 06:46:42;;;;;;;42.63;30.15;;;;;;;0.99;100.00;93734.25;5070012;28;20467;-70
2022/12/25 06:49:10;;;;;;;44.20;28.60;;;;;;;0.95;100.00;93732.94;5070271;28;20110;-71
2022/12/25 06:51:39;;;;;;;44.20;27.73;;;;;;;1.00;100.00;93728.25;5070288;28;20106;-71
2022/12/25 06:54:06;;;;;;;59.38;37.85;;;;;;;1.04;100.00;93745.59;5069866;28;20086;-71
2022/12/25 06:56:34;;;;;;;46.75;31.45;;;;;;;1.01;100.00;93742.50;5064421;28;20563;-71
2022/12/25 06:59:04;;;;;;;42.70;30.50;;;;;;;1.13;100.00;93751.53;5054484;28;20045;-71
2022/12/25 07:01:34;;;;;;;43.47;31.50;;;;;;;1.21;100.00;93750.84;5056462;28;20099;-71
2022/12/25 07:04:03;;;;;;;42.15;30.42;;;;;;;1.15;100.00;93742.06;5057166;28;20417;-71
2022/12/25 07:06:30;;;;;;;41.97;31.17;;;;;;;1.24;100.00;93742.97;5060015;28;20064;-71
2022/12/25 07:08:57;;;;;;;48.20;36.63;;;;;;;1.27;100.00;93760.44;5055125;28;20053;-71
2022/12/25 07:11:24;;;;;;;52.00;36.17;;;;;;;1.12;100.00;93747.44;5069714;28;20602;-71
2022/12/25 07:13:52;;;;;;;46.63;35.25;;;;;;;1.24;100.00;93755.63;5069617;28;20040;-71
2022/12/25 07:16:19;;;;;;;48.90;37.35;;;;;;;1.36;100.00;93755.44;5069993;28;20489;-71
2022/12/25 07:18:46;;;;;;;55.63;42.00;;;;;;;1.46;100.00;93769.69;5069338;28;20070;-71
2022/12/25 07:21:15;;;;;;;62.20;45.60;;;;;;;1.52;100.00;93770.06;5069628;28;20076;-71
2022/12/25 07:23:42;;;;;;;127.32;82.28;;;;;;;1.58;100.00;93779.63;5069279;28;20096;-71
2022/12/25 07:26:13;;;;;;;115.60;80.18;;;;;;;1.44;100.00;93765.69;5069789;28;20053;-71
2022/12/25 07:28:41;;;;;;;84.60;60.78;;;;;;;1.66;100.00;93771.34;5065974;28;20044;-71
2022/12/25 07:31:13;;;;;;;107.35;77.55;;;;;;;1.72;100.00;93761.41;5068910;28;20098;-71
2022/12/25 07:33:40;;;;;;;109.60;75.82;;;;;;;1.89;100.00;93764.13;5065652;28;20048;-71
2022/12/25 07:36:07;;;;;;;132.65;96.07;;;;;;;1.94;100.00;93774.63;5061733;28;20125;-71
2022/12/25 07:38:34;;;;;;;122.82;89.82;;;;;;;2.11;100.00;93773.06;5067893;28;20055;-71
2022/12/25 07:41:01;;;;;;;130.23;92.50;;;;;;;2.25;100.00;93779.38;5069356;28;20095;-71
2022/12/25 07:43:28;;;;;;;106.25;74.93;;;;;;;2.34;100.00;93785.31;5068672;28;20562;-71
2022/12/25 07:45:56;;;;;;;88.57;67.07;;;;;;;2.45;100.00;93791.91;5068917;28;20044;-71
2022/12/25 07:48:24;;;;;;;72.30;47.83;;;;;;;2.49;100.00;93808.44;5065601;28;20044;-71
2022/12/25 07:50:56;;;;;;;76.18;52.90;;;;;;;2.46;100.00;93800.31;5067000;28;20068;-71
2022/12/25 07:53:22;;;;;;;86.88;60.00;;;;;;;2.47;100.00;93796.84;5068959;28;20053;-71
2022/12/25 07:56:03;;;;;;;80.82;52.72;;;;;;;1.77;100.00;93679.97;5068825;28;20048;-71
2022/12/25 07:58:31;;;;;;;53.40;35.58;;;;;;;2.83;100.00;93801.09;5068685;28;20044;-71
2022/12/25 08:01:03;;;;;;;54.83;39.45;;;;;;;2.97;100.00;93804.84;5069145;28;20097;-71
2022/12/25 08:03:32;;;;;;;55.53;38.13;;;;;;;3.13;100.00;93794.00;5068908;28;20052;-71
2022/12/25 08:06:00;;;;;;;51.97;36.03;;;;;;;3.21;100.00;93799.13;5068847;28;20045;-71
2022/12/25 08:08:27;;;;;;;78.45;53.97;;;;;;;3.29;100.00;93809.31;5069357;28;20117;-71
2022/12/25 08:10:54;;;;;;;90.10;60.13;;;;;;;3.31;100.00;93811.72;5069515;28;20131;-71
2022/12/25 08:13:21;;;;;;;103.47;66.63;;;;;;;3.45;100.00;93811.19;5069102;28;20045;-71
2022/12/25 08:15:47;;;;;;;107.43;71.57;;;;;;;3.56;100.00;93799.16;5068536;28;20098;-71
2022/12/25 08:18:14;;;;;;;100.28;68.47;;;;;;;3.73;100.00;93807.66;5068274;28;20113;-71
2022/12/25 08:20:42;;;;;;;121.85;78.40;;;;;;;3.78;100.00;93802.91;5068893;28;20045;-71
2022/12/25 08:23:09;;;;;;;119.05;74.78;;;;;;;3.87;100.00;93802.00;5068715;28;20052;-71
2022/12/25 08:25:36;;;;;;;98.97;64.70;;;;;;;4.02;100.00;93803.94;5069112;28;20051;-71
2022/12/25 08:28:04;;;;;;;114.20;75.57;;;;;;;4.00;100.00;93793.94;5065466;28;20444;-71
2022/12/25 08:30:31;;;;;;;134.25;86.03;;;;;;;4.24;100.00;93806.84;5060805;28;20094;-71
2022/12/25 08:32:58;;;;;;;135.80;85.22;;;;;;;4.42;100.00;93796.56;5068575;28;20459;-71
2022/12/25 08:35:25;;;;;;;119.80;80.15;;;;;;;4.61;100.00;93798.03;5068796;28;20098;-72
2022/12/25 08:37:54;;;;;;;107.47;69.95;;;;;;;4.47;100.00;93774.00;5068307;28;20045;-72
2022/12/25 08:40:20;;;;;;;90.28;60.85;;;;;;;4.66;100.00;93800.88;5062865;28;20566;-71
2022/12/25 08:42:47;;;;;;;96.90;61.38;;;;;;;4.91;100.00;93800.88;5063427;28;20057;-71
2022/12/25 08:45:14;;;;;;;97.32;69.03;;;;;;;5.09;100.00;93807.53;5065086;28;20550;-71
2022/12/25 08:47:40;;;;;;;91.47;57.22;;;;;;;5.27;100.00;93809.91;5068490;28;20053;-71
2022/12/25 08:50:08;;;;;;;68.88;44.47;;;;;;;5.35;100.00;93814.22;5068176;28;20052;-72
2022/12/25 08:52:35;;;;;;;57.67;36.15;;;;;;;5.57;100.00;93810.19;5042237;28;20048;-72
2022/12/25 08:55:03;;;;;;;40.45;29.10;;;;;;;5.81;100.00;93811.06;5068101;28;20044;-71
2022/12/25 08:57:30;;;;;;;42.40;25.42;;;;;;;5.96;100.00;93808.63;5068513;28;20049;-72
2022/12/25 08:59:57;;;;;;;39.67;20.83;;;;;;;6.01;100.00;93816.56;5068515;28;20044;-71
2022/12/25 09:02:24;;;;;;;30.90;17.90;;;;;;;6.19;100.00;93820.66;5068698;28;20049;-71
2022/12/25 09:04:50;;;;;;;22.10;12.30;;;;;;;6.32;100.00;93821.84;5068297;28;20049;-71
2022/12/25 09:07:17;;;;;;;24.77;13.05;;;;;;;6.44;100.00;93824.84;5068478;28;20439;-71
2022/12/25 09:09:44;;;;;;;17.85;9.40;;;;;;;6.44;100.00;93832.50;5068030;28;20048;-71
2022/12/25 09:12:12;;;;;;;28.60;14.25;;;;;;;6.46;100.00;93845.88;5068047;28;20497;-71
2022/12/25 09:14:38;;;;;;;17.40;9.75;;;;;;;6.48;100.00;93838.84;5067896;28;20052;-71
2022/12/25 09:17:05;;;;;;;16.17;8.60;;;;;;;6.56;100.00;93843.91;5067741;28;20052;-71
2022/12/25 09:19:32;;;;;;;24.40;12.63;;;;;;;6.51;100.00;93834.19;5068428;28;20048;-71
2022/12/25 09:21:59;;;;;;;23.30;13.23;;;;;;;6.50;100.00;93830.06;5068462;28;20053;-71
2022/12/25 09:24:25;;;;;;;19.85;11.43;;;;;;;6.61;100.00;93817.88;5067888;28;20121;-71
2022/12/25 09:26:52;;;;;;;20.90;10.60;;;;;;;6.78;100.00;93832.13;5068251;28;20049;-71
2022/12/25 09:29:20;;;;;;;23.95;12.73;;;;;;;6.97;100.00;93824.16;5054822;28;20438;-71
2022/12/25 09:31:47;;;;;;;78.65;44.65;;;;;;;7.12;100.00;93822.44;5061055;28;20048;-72
2022/12/25 09:34:14;;;;;;;78.35;43.35;;;;;;;7.31;100.00;93828.81;5071955;28;20056;-72
2022/12/25 09:36:40;;;;;;;51.08;25.92;;;;;;;7.46;100.00;93826.28;5071537;28;20463;-72
2022/12/25 09:39:07;;;;;;;25.45;7.63;;;;;;;7.62;100.00;93827.91;5071167;28;20086;-72
2022/12/25 09:41:38;;;;;;;10.90;4.43;;;;;;;7.68;100.00;93828.94;5063111;28;20046;-72
2022/12/25 09:44:10;;;;;;;19.60;6.28;;;;;;;7.71;100.00;93827.78;5052751;28;20557;-72
2022/12/25 09:46:43;;;;;;;16.52;6.95;;;;;;;7.71;100.00;93830.34;5071959;28;20040;-72
2022/12/25 09:49:18;;;;;;;16.05;6.22;;;;;;;7.84;100.00;93824.63;5071469;28;20048;-72
2022/12/25 09:51:49;;;;;;;9.65;3.63;;;;;;;7.89;100.00;93827.44;5069350;28;20046;-72
2022/12/25 09:54:20;;;;;;;15.52;7.15;;;;;;;7.96;100.00;93836.00;5046250;28;20118;-72
2022/12/25 09:56:47;;;;;;;12.45;5.00;;;;;;;8.04;100.00;93827.44;5071166;28;20098;-72
2022/12/25 09:59:21;;;;;;;17.33;7.13;;;;;;;8.11;100.00;93827.50;5071309;28;20428;-72
2022/12/25 10:01:59;;;;;;;65.30;28.65;;;;;;;8.24;100.00;93817.41;5071192;28;20106;-72
2022/12/25 10:04:42;;;;;;;33.80;13.32;;;;;;;8.24;100.00;93785.94;5054745;28;20053;-72
2022/12/25 10:07:23;;;;;;;604.45;261.63;;;;;;;8.55;100.00;93820.72;5058854;28;20045;-72
2022/12/25 10:09:57;;;;;;;87.53;33.83;;;;;;;8.59;100.00;93816.84;5044915;28;20048;-72
2022/12/25 10:12:39;;;;;;;67.57;19.55;;;;;;;8.63;100.00;93812.13;5071030;28;20066;-72
2022/12/25 10:15:24;;;;;;;95.10;30.40;;;;;;;8.65;100.00;93820.44;5070453;28;20087;-72
2022/12/25 10:18:10;;;;;;;132.40;43.53;;;;;;;8.66;100.00;93820.25;5070792;28;20052;-72
2022/12/25 10:20:48;;;;;;;661.38;268.45;;;;;;;8.88;100.00;93829.72;5070222;28;20048;-72
2022/12/25 10:23:19;;;;;;;50.28;18.58;;;;;;;8.93;100.00;93819.69;5070597;28;20500;-72
2022/12/25 10:25:47;;;;;;;276.27;91.20;;;;;;;8.92;100.00;93805.31;5070731;28;20048;-72
2022/12/25 10:28:23;;;;;;;130.10;44.28;;;;;;;9.03;100.00;93809.16;5066107;28;20044;-72
2022/12/25 10:30:52;;;;;;;33.60;15.40;;;;;;;9.12;100.00;93814.94;5056453;28;20113;-72
2022/12/25 10:33:22;;;;;;;29.25;11.75;;;;;;;9.25;100.00;93822.72;5070219;28;20098;-72
2022/12/25 10:35:51;;;;;;;18.45;10.30;;;;;;;9.33;100.00;93830.28;5070951;28;20044;-72
2022/12/25 10:38:24;;;;;;;125.07;48.17;;;;;;;9.34;100.00;93833.63;5070709;28;20094;-72
2022/12/25 10:41:04;;;;;;;24.77;11.77;;;;;;;9.38;100.00;93823.78;5070409;28;20048;-72
2022/12/25 10:43:42;;;;;;;17.75;9.82;;;;;;;9.40;100.00;93826.97;5070369;28;20048;-72
2022/12/25 10:46:11;;;;;;;16.80;9.15;;;;;;;9.41;100.00;93831.13;5071159;28;20143;-72
2022/12/25 10:48:43;;;;;;;16.77;8.48;;;;;;;9.27;100.00;93815.66;5070564;28;20052;-72
2022/12/25 10:51:10;;;;;;;14.32;6.35;;;;;;;9.33;100.00;93820.03;5069964;28;20488;-72
2022/12/25 10:53:40;;;;;;;10.80;4.30;;;;;;;9.40;100.00;93817.50;5070076;28;20063;-71
2022/12/25 10:56:14;;;;;;;10.95;4.90;;;;;;;9.43;100.00;93814.56;5070025;28;20049;-72
2022/12/25 10:58:41;;;;;;;25.77;9.35;;;;;;;9.55;100.00;93819.19;5070058;28;20493;-72
2022/12/25 11:01:08;;;;;;;10.88;3.85;;;;;;;9.34;100.00;93823.38;5069902;28;20040;-71
2022/12/25 11:03:38;;;;;;;13.52;4.22;;;;;;;9.26;100.00;93823.53;5069516;28;20045;-71
2022/12/25 11:06:18;;;;;;;13.43;4.22;;;;;;;9.14;100.00;93818.91;5061097;28;20110;-71
2022/12/25 11:08:51;;;;;;;14.23;3.75;;;;;;;9.32;100.00;93813.31;5057794;28;20049;-72
2022/12/25 11:11:20;;;;;;;10.48;4.80;;;;;;;9.34;100.00;93819.03;5054169;28;20488;-72
2022/12/25 11:13:50;;;;;;;9.32;3.53;;;;;;;9.28;100.00;93819.78;5070193;28;20131;-71
2022/12/25 11:16:28;;;;;;;9.32;3.38;;;;;;;9.39;100.00;93808.22;5070071;28;20044;-71
2022/12/25 11:18:55;;;;;;;14.82;5.40;;;;;;;9.58;100.00;93806.00;5056239;28;20102;-71
2022/12/25 11:21:26;;;;;;;5.85;2.92;;;;;;;9.70;100.00;93813.94;5069742;28;20040;-72
2022/12/25 11:23:57;;;;;;;14.00;5.25;;;;;;;9.81;100.00;93813.41;5069551;28;20058;-72
2022/12/25 11:26:24;;;;;;;15.32;5.45;;;;;;;9.91;100.00;93819.97;5069736;28;20094;-72
2022/12/25 11:28:52;;;;;;;13.10;4.80;;;;;;;9.95;100.00;93829.66;5069986;28;20040;-72
2022/12/25 11:31:21;;;;;;;9.63;3.53;;;;;;;10.06;100.00;93824.97;5069598;28;20492;-72
2022/12/25 11:33:55;;;;;;;7.88;3.05;;;;;;;9.85;100.00;93832.56;5069342;28;20061;-72
2022/12/25 11:36:30;;;;;;;9.32;3.22;;;;;;;9.54;100.00;93825.28;5062948;28;20089;-72
2022/12/25 11:39:01;;;;;;;9.67;3.67;;;;;;;9.76;100.00;93816.53;5062953;28;20040;-71
2022/12/25 11:41:32;;;;;;;14.10;5.43;;;;;;;9.82;100.00;93820.09;5067036;28;20045;-72
2022/12/25 11:44:03;;;;;;;4.50;2.55;;;;;;;9.51;100.00;93805.13;5068392;28;20052;-71
2022/12/25 11:46:40;;;;;;;4.63;2.25;;;;;;;9.38;100.00;93814.34;5066445;28;20070;-70
2022/12/25 11:49:10;;;;;;;6.28;3.67;;;;;;;9.36;100.00;93811.94;5067444;28;20055;-71
2022/12/25 11:51:45;;;;;;;5.70;2.75;;;;;;;9.26;100.00;93826.09;5069693;28;20151;-70
2022/12/25 11:54:19;;;;;;;6.13;3.65;;;;;;;9.35;100.00;93812.13;5069445;28;20059;-71
2022/12/25 11:56:46;;;;;;;6.82;3.97;;;;;;;9.38;100.00;93818.66;5069482;28;20045;-70
2022/12/25 11:59:27;;;;;;;3.63;2.38;;;;;;;9.43;100.00;93827.38;5068999;28;20044;-70
2022/12/25 12:01:59;;;;;;;5.82;2.25;;;;;;;9.42;100.00;93820.69;5060000;28;20045;-70
2022/12/25 12:04:41;;;;;;;6.40;3.35;;;;;;;9.47;100.00;93812.41;5068050;28;20094;-71
2022/12/25 12:07:21;;;;;;;44.22;18.27;;;;;;;9.57;100.00;93805.19;5067407;28;20136;-71
2022/12/25 12:10:02;;;;;;;10.85;5.32;;;;;;;9.49;100.00;93811.25;5068822;28;20403;-71
2022/12/25 12:12:39;;;;;;;4.93;1.77;;;;;;;9.63;100.00;93812.13;5068777;28;20048;-71
2022/12/25 12:15:19;;;;;;;4.65;2.67;;;;;;;9.77;100.00;93809.66;5068249;28;20052;-71
2022/12/25 12:17:46;;;;;;;6.82;2.80;;;;;;;9.97;100.00;93808.94;5069940;28;20074;-70
2022/12/25 12:20:26;;;;;;;7.40;2.80;;;;;;;10.10;100.00;93805.66;5069203;28;20057;-70
2022/12/25 12:22:54;;;;;;;7.47;3.15;;;;;;;10.11;100.00;93794.38;5068713;28;20475;-70
2022/12/25 12:25:22;;;;;;;6.00;3.13;;;;;;;10.31;100.00;93799.59;5068843;28;20117;-70
2022/12/25 12:27:55;;;;;;;5.32;2.63;;;;;;;10.40;100.00;93811.28;5066399;28;20090;-70
2022/12/25 12:30:25;;;;;;;6.85;2.58;;;;;;;10.46;100.00;93816.66;5062224;28;20460;-70
2022/12/25 12:32:54;;;;;;;9.65;3.83;;;;;;;10.50;100.00;93808.38;5068568;28;20086;-71
2022/12/25 12:35:30;;;;;;;14.70;4.00;;;;;;;10.45;100.00;93800.44;5068523;28;20048;-70
2022/12/25 12:38:02;;;;;;;6.50;2.83;;;;;;;10.59;99.31;93814.09;5056316;28;20057;-70
2022/12/25 12:40:36;;;;;;;10.35;4.10;;;;;;;10.56;100.00;93824.78;5068444;28;20091;-71
2022/12/25 12:43:04;;;;;;;2.92;1.27;;;;;;;10.36;95.63;93822.09;5068421;28;20041;-70
2022/12/25 12:45:34;;;;;;;3.67;2.28;;;;;;;10.20;95.25;93821.47;5068063;28;20107;-70
2022/12/25 12:48:02;;;;;;;3.15;0.90;;;;;;;9.95;91.96;93788.59;5068620;28;20044;-70
2022/12/25 12:50:33;;;;;;;2.33;0.90;;;;;;;10.05;91.03;93826.75;5068065;28;20052;-70
2022/12/25 12:53:17;;;;;;;2.95;0.90;;;;;;;9.94;91.37;93822.94;5068705;28;20049;-70
2022/12/25 12:55:44;;;;;;;2.30;1.10;;;;;;;9.77;88.96;93830.16;5055003;28;20079;-70
2022/12/25 12:58:32;;;;;;;4.07;2.30;;;;;;;9.82;94.29;93824.47;5068156;28;20511;-70
2022/12/25 13:01:13;;;;;;;5.03;2.05;;;;;;;9.79;92.13;93827.41;5068705;28;20095;-70
2022/12/25 13:04:08;;;;;;;2.35;1.00;;;;;;;9.74;88.69;93822.84;5068545;28;20102;-70
2022/12/25 13:06:42;;;;;;;3.55;1.40;;;;;;;9.72;92.04;93830.72;5044696;28;20485;-70
2022/12/25 13:09:27;;;;;;;5.25;2.42;;;;;;;9.73;89.15;93828.97;5072475;28;20045;-70
2022/12/25 13:11:54;;;;;;;3.15;1.20;;;;;;;9.73;88.87;93832.28;5071938;28;20197;-70